sensor_id;sensor_type;location;lat;lon;timestamp;P1;durP1;ratioP1;P2;durP2;ratioP2
3267;SDS011;1646;52.450;13.326;2023-06-10T00:01:41;11.50;;;5.10;;
3267;SDS011;1646;52.450;13.326;2023-06-10T00:06:41;11.67;;;5.73;;
3267;SDS011;1646;52.450;13.326;2023-06-10T00:11:40;12.23;;;6.30;;
3267;SDS011;1646;52.450;13.326;2023-06-10T00:16:38;10.50;;;5.50;;
3267;SDS011;1646;52.450;13.326;2023-06-10T00:21:37;12.87;;;5.60;;
3267;SDS011;1646;52.450;13.326;2023-06-10T00:26:38;12.10;;;4.70;;
3267;SDS011;1646;52.450;13.326;2023-06-10T00:31:37;11.60;;;4.67;;
3267;SDS011;1646;52.450;13.326;2023-06-10T00:36:36;11.77;;;5.40;;
3267;SDS011;1646;52.450;13.326;2023-06-10T00:41:34;9.90;;;4.90;;
3267;SDS011;1646;52.450;13.326;2023-06-10T00:46:34;11.60;;;5.50;;
3267;SDS011;1646;52.450;13.326;2023-06-10T00:51:34;15.70;;;5.27;;
3267;SDS011;1646;52.450;13.326;2023-06-10T00:56:32;8.67;;;4.67;;
3267;SDS011;1646;52.450;13.326;2023-06-10T01:01:32;7.70;;;4.83;;
3267;SDS011;1646;52.450;13.326;2023-06-10T01:06:36;9.83;;;4.90;;
3267;SDS011;1646;52.450;13.326;2023-06-10T01:11:45;8.70;;;5.37;;
3267;SDS011;1646;52.450;13.326;2023-06-10T01:16:50;10.60;;;4.97;;
3267;SDS011;1646;52.450;13.326;2023-06-10T01:21:54;15.13;;;5.03;;
3267;SDS011;1646;52.450;13.326;2023-06-10T01:26:52;10.57;;;5.10;;
3267;SDS011;1646;52.450;13.326;2023-06-10T01:31:58;12.27;;;5.43;;
3267;SDS011;1646;52.450;13.326;2023-06-10T01:37:03;11.27;;;5.10;;
3267;SDS011;1646;52.450;13.326;2023-06-10T01:42:02;13.73;;;5.43;;
3267;SDS011;1646;52.450;13.326;2023-06-10T01:47:04;10.00;;;4.90;;
3267;SDS011;1646;52.450;13.326;2023-06-10T01:52:05;11.77;;;4.90;;
3267;SDS011;1646;52.450;13.326;2023-06-10T01:57:04;15.90;;;4.90;;
3267;SDS011;1646;52.450;13.326;2023-06-10T02:02:03;21.23;;;5.70;;
3267;SDS011;1646;52.450;13.326;2023-06-10T02:07:02;15.37;;;5.40;;
3267;SDS011;1646;52.450;13.326;2023-06-10T02:12:04;13.63;;;5.47;;
3267;SDS011;1646;52.450;13.326;2023-06-10T02:17:03;12.00;;;5.30;;
3267;SDS011;1646;52.450;13.326;2023-06-10T02:22:03;9.50;;;4.80;;
3267;SDS011;1646;52.450;13.326;2023-06-10T02:27:01;9.43;;;4.40;;
3267;SDS011;1646;52.450;13.326;2023-06-10T02:32:03;10.80;;;4.97;;
3267;SDS011;1646;52.450;13.326;2023-06-10T02:37:06;11.23;;;5.00;;
3267;SDS011;1646;52.450;13.326;2023-06-10T02:42:06;14.70;;;5.37;;
3267;SDS011;1646;52.450;13.326;2023-06-10T02:47:05;10.80;;;4.30;;
3267;SDS011;1646;52.450;13.326;2023-06-10T02:52:06;11.50;;;5.30;;
3267;SDS011;1646;52.450;13.326;2023-06-10T02:57:06;17.23;;;5.20;;
3267;SDS011;1646;52.450;13.326;2023-06-10T03:02:06;8.43;;;4.87;;
3267;SDS011;1646;52.450;13.326;2023-06-10T03:07:11;12.30;;;5.67;;
3267;SDS011;1646;52.450;13.326;2023-06-10T03:12:11;14.40;;;5.27;;
3267;SDS011;1646;52.450;13.326;2023-06-10T03:17:14;9.97;;;4.83;;
3267;SDS011;1646;52.450;13.326;2023-06-10T03:22:14;14.17;;;6.30;;
3267;SDS011;1646;52.450;13.326;2023-06-10T03:27:29;12.00;;;5.20;;
3267;SDS011;1646;52.450;13.326;2023-06-10T03:32:31;8.93;;;5.97;;
3267;SDS011;1646;52.450;13.326;2023-06-10T03:37:30;9.70;;;5.40;;
3267;SDS011;1646;52.450;13.326;2023-06-10T03:42:30;10.60;;;5.33;;
3267;SDS011;1646;52.450;13.326;2023-06-10T03:47:32;16.67;;;5.57;;
3267;SDS011;1646;52.450;13.326;2023-06-10T03:52:35;11.37;;;5.93;;
3267;SDS011;1646;52.450;13.326;2023-06-10T03:57:36;12.20;;;5.60;;
3267;SDS011;1646;52.450;13.326;2023-06-10T04:02:34;9.33;;;5.80;;
3267;SDS011;1646;52.450;13.326;2023-06-10T04:07:33;9.83;;;5.57;;
3267;SDS011;1646;52.450;13.326;2023-06-10T04:12:31;16.07;;;5.80;;
3267;SDS011;1646;52.450;13.326;2023-06-10T04:17:31;15.17;;;6.20;;
3267;SDS011;1646;52.450;13.326;2023-06-10T04:22:30;14.77;;;5.30;;
3267;SDS011;1646;52.450;13.326;2023-06-10T04:27:28;10.47;;;5.93;;
3267;SDS011;1646;52.450;13.326;2023-06-10T04:32:27;11.83;;;6.17;;
3267;SDS011;1646;52.450;13.326;2023-06-10T04:37:27;17.70;;;7.30;;
3267;SDS011;1646;52.450;13.326;2023-06-10T04:42:26;10.03;;;5.90;;
3267;SDS011;1646;52.450;13.326;2023-06-10T04:47:25;11.93;;;6.03;;
3267;SDS011;1646;52.450;13.326;2023-06-10T04:52:24;14.13;;;6.70;;
3267;SDS011;1646;52.450;13.326;2023-06-10T04:57:24;11.47;;;5.20;;
3267;SDS011;1646;52.450;13.326;2023-06-10T05:02:23;11.90;;;5.73;;
3267;SDS011;1646;52.450;13.326;2023-06-10T05:07:22;12.67;;;6.73;;
3267;SDS011;1646;52.450;13.326;2023-06-10T05:12:20;12.97;;;6.97;;
3267;SDS011;1646;52.450;13.326;2023-06-10T05:17:20;13.20;;;6.27;;
3267;SDS011;1646;52.450;13.326;2023-06-10T05:22:18;13.30;;;6.80;;
3267;SDS011;1646;52.450;13.326;2023-06-10T05:27:16;16.53;;;7.30;;
3267;SDS011;1646;52.450;13.326;2023-06-10T05:32:15;10.43;;;6.67;;
3267;SDS011;1646;52.450;13.326;2023-06-10T05:37:14;16.17;;;6.47;;
3267;SDS011;1646;52.450;13.326;2023-06-10T05:42:12;31.23;;;6.40;;
3267;SDS011;1646;52.450;13.326;2023-06-10T05:47:11;12.87;;;6.10;;
3267;SDS011;1646;52.450;13.326;2023-06-10T05:52:09;10.13;;;6.40;;
3267;SDS011;1646;52.450;13.326;2023-06-10T05:57:09;16.73;;;6.40;;
3267;SDS011;1646;52.450;13.326;2023-06-10T06:02:07;10.40;;;6.13;;
3267;SDS011;1646;52.450;13.326;2023-06-10T06:07:06;10.00;;;6.10;;
3267;SDS011;1646;52.450;13.326;2023-06-10T06:12:04;12.97;;;7.33;;
3267;SDS011;1646;52.450;13.326;2023-06-10T06:17:05;10.10;;;6.20;;
3267;SDS011;1646;52.450;13.326;2023-06-10T06:22:04;9.77;;;6.50;;
3267;SDS011;1646;52.450;13.326;2023-06-10T06:27:02;12.27;;;6.87;;
3267;SDS011;1646;52.450;13.326;2023-06-10T06:32:01;12.57;;;6.77;;
3267;SDS011;1646;52.450;13.326;2023-06-10T06:37:01;11.73;;;6.20;;
3267;SDS011;1646;52.450;13.326;2023-06-10T06:42:03;13.00;;;6.17;;
3267;SDS011;1646;52.450;13.326;2023-06-10T06:47:28;15.17;;;6.90;;
3267;SDS011;1646;52.450;13.326;2023-06-10T06:52:28;9.40;;;6.43;;
3267;SDS011;1646;52.450;13.326;2023-06-10T06:57:27;19.27;;;7.70;;
3267;SDS011;1646;52.450;13.326;2023-06-10T07:02:25;11.43;;;6.77;;
3267;SDS011;1646;52.450;13.326;2023-06-10T07:07:23;15.80;;;6.63;;
3267;SDS011;1646;52.450;13.326;2023-06-10T07:12:23;12.30;;;7.30;;
3267;SDS011;1646;52.450;13.326;2023-06-10T07:17:21;15.03;;;7.63;;
3267;SDS011;1646;52.450;13.326;2023-06-10T07:22:20;17.30;;;8.07;;
3267;SDS011;1646;52.450;13.326;2023-06-10T07:27:18;17.63;;;7.80;;
3267;SDS011;1646;52.450;13.326;2023-06-10T07:32:18;14.20;;;6.87;;
3267;SDS011;1646;52.450;13.326;2023-06-10T07:37:18;9.90;;;6.30;;
3267;SDS011;1646;52.450;13.326;2023-06-10T07:42:16;13.60;;;7.37;;
3267;SDS011;1646;52.450;13.326;2023-06-10T07:47:15;15.57;;;9.03;;
3267;SDS011;1646;52.450;13.326;2023-06-10T07:52:14;18.70;;;7.57;;
3267;SDS011;1646;52.450;13.326;2023-06-10T07:57:13;16.63;;;7.20;;
3267;SDS011;1646;52.450;13.326;2023-06-10T08:02:11;10.13;;;6.60;;
3267;SDS011;1646;52.450;13.326;2023-06-10T08:07:09;19.37;;;7.23;;
3267;SDS011;1646;52.450;13.326;2023-06-10T08:12:09;10.60;;;7.20;;
3267;SDS011;1646;52.450;13.326;2023-06-10T08:17:10;12.17;;;7.73;;
3267;SDS011;1646;52.450;13.326;2023-06-10T08:22:09;9.90;;;7.47;;
3267;SDS011;1646;52.450;13.326;2023-06-10T08:27:08;12.80;;;7.37;;
3267;SDS011;1646;52.450;13.326;2023-06-10T08:32:07;15.37;;;7.23;;
3267;SDS011;1646;52.450;13.326;2023-06-10T08:37:06;11.10;;;7.70;;
3267;SDS011;1646;52.450;13.326;2023-06-10T08:42:11;14.83;;;7.50;;
3267;SDS011;1646;52.450;13.326;2023-06-10T08:47:17;10.63;;;6.77;;
3267;SDS011;1646;52.450;13.326;2023-06-10T08:52:16;14.43;;;6.50;;
3267;SDS011;1646;52.450;13.326;2023-06-10T08:57:16;14.53;;;7.57;;
3267;SDS011;1646;52.450;13.326;2023-06-10T09:02:18;13.93;;;7.70;;
3267;SDS011;1646;52.450;13.326;2023-06-10T09:07:17;12.23;;;6.87;;
3267;SDS011;1646;52.450;13.326;2023-06-10T09:12:17;10.27;;;6.90;;
3267;SDS011;1646;52.450;13.326;2023-06-10T09:17:15;15.93;;;7.20;;
3267;SDS011;1646;52.450;13.326;2023-06-10T09:22:14;18.33;;;6.80;;
3267;SDS011;1646;52.450;13.326;2023-06-10T09:27:12;14.83;;;7.60;;
3267;SDS011;1646;52.450;13.326;2023-06-10T09:32:12;10.30;;;7.07;;
3267;SDS011;1646;52.450;13.326;2023-06-10T09:37:11;10.87;;;6.23;;
3267;SDS011;1646;52.450;13.326;2023-06-10T09:42:16;13.60;;;6.53;;
3267;SDS011;1646;52.450;13.326;2023-06-10T09:47:20;10.93;;;6.97;;
3267;SDS011;1646;52.450;13.326;2023-06-10T09:52:21;11.83;;;6.40;;
3267;SDS011;1646;52.450;13.326;2023-06-10T09:57:20;12.00;;;7.43;;
3267;SDS011;1646;52.450;13.326;2023-06-10T10:02:20;12.20;;;6.70;;
3267;SDS011;1646;52.450;13.326;2023-06-10T10:07:19;9.80;;;7.00;;
3267;SDS011;1646;52.450;13.326;2023-06-10T10:12:17;11.00;;;6.47;;
3267;SDS011;1646;52.450;13.326;2023-06-10T10:17:16;8.23;;;5.83;;
3267;SDS011;1646;52.450;13.326;2023-06-10T10:22:19;13.90;;;6.03;;
3267;SDS011;1646;52.450;13.326;2023-06-10T10:27:24;8.03;;;6.27;;
3267;SDS011;1646;52.450;13.326;2023-06-10T10:32:27;11.30;;;6.47;;
3267;SDS011;1646;52.450;13.326;2023-06-10T10:37:31;10.73;;;7.13;;
3267;SDS011;1646;52.450;13.326;2023-06-10T10:42:30;10.57;;;7.10;;
3267;SDS011;1646;52.450;13.326;2023-06-10T10:47:29;9.70;;;6.27;;
3267;SDS011;1646;52.450;13.326;2023-06-10T10:52:46;10.70;;;5.27;;
3267;SDS011;1646;52.450;13.326;2023-06-10T10:57:55;5.20;;;4.70;;
3267;SDS011;1646;52.450;13.326;2023-06-10T11:02:57;4.47;;;4.10;;
3267;SDS011;1646;52.450;13.326;2023-06-10T11:08:01;8.13;;;4.00;;
3267;SDS011;1646;52.450;13.326;2023-06-10T11:13:00;11.03;;;4.60;;
3267;SDS011;1646;52.450;13.326;2023-06-10T11:18:10;6.23;;;4.07;;
3267;SDS011;1646;52.450;13.326;2023-06-10T11:23:11;5.67;;;4.13;;
3267;SDS011;1646;52.450;13.326;2023-06-10T11:28:23;11.67;;;4.77;;
3267;SDS011;1646;52.450;13.326;2023-06-10T11:33:25;6.50;;;4.30;;
3267;SDS011;1646;52.450;13.326;2023-06-10T11:38:25;9.77;;;7.10;;
3267;SDS011;1646;52.450;13.326;2023-06-10T11:43:25;5.67;;;5.17;;
3267;SDS011;1646;52.450;13.326;2023-06-10T11:48:23;10.30;;;6.77;;
3267;SDS011;1646;52.450;13.326;2023-06-10T11:53:26;7.10;;;5.77;;
3267;SDS011;1646;52.450;13.326;2023-06-10T11:58:24;9.33;;;5.37;;
3267;SDS011;1646;52.450;13.326;2023-06-10T12:03:23;7.83;;;5.50;;
3267;SDS011;1646;52.450;13.326;2023-06-10T12:08:22;8.87;;;5.83;;
3267;SDS011;1646;52.450;13.326;2023-06-10T12:13:23;7.40;;;5.97;;
3267;SDS011;1646;52.450;13.326;2023-06-10T12:18:21;8.47;;;6.70;;
3267;SDS011;1646;52.450;13.326;2023-06-10T12:23:20;12.97;;;5.53;;
3267;SDS011;1646;52.450;13.326;2023-06-10T12:28:20;13.93;;;5.20;;
3267;SDS011;1646;52.450;13.326;2023-06-10T12:33:20;6.07;;;4.83;;
3267;SDS011;1646;52.450;13.326;2023-06-10T12:38:22;5.83;;;4.90;;
3267;SDS011;1646;52.450;13.326;2023-06-10T12:43:25;7.13;;;4.60;;
3267;SDS011;1646;52.450;13.326;2023-06-10T12:48:24;6.53;;;5.13;;
3267;SDS011;1646;52.450;13.326;2023-06-10T12:53:26;8.43;;;5.50;;
3267;SDS011;1646;52.450;13.326;2023-06-10T12:58:26;13.73;;;6.07;;
3267;SDS011;1646;52.450;13.326;2023-06-10T13:03:24;7.40;;;5.77;;
3267;SDS011;1646;52.450;13.326;2023-06-10T13:08:22;7.07;;;6.37;;
3267;SDS011;1646;52.450;13.326;2023-06-10T13:13:21;7.70;;;5.70;;
3267;SDS011;1646;52.450;13.326;2023-06-10T13:18:38;7.40;;;6.70;;
3267;SDS011;1646;52.450;13.326;2023-06-10T13:23:36;7.80;;;6.20;;
3267;SDS011;1646;52.450;13.326;2023-06-10T13:28:35;7.47;;;6.83;;
3267;SDS011;1646;52.450;13.326;2023-06-10T13:33:33;8.53;;;6.60;;
3267;SDS011;1646;52.450;13.326;2023-06-10T13:38:33;7.97;;;7.17;;
3267;SDS011;1646;52.450;13.326;2023-06-10T13:43:31;7.53;;;6.20;;
3267;SDS011;1646;52.450;13.326;2023-06-10T13:48:29;14.10;;;7.10;;
3267;SDS011;1646;52.450;13.326;2023-06-10T13:53:27;6.70;;;6.00;;
3267;SDS011;1646;52.450;13.326;2023-06-10T13:58:27;7.70;;;6.80;;
3267;SDS011;1646;52.450;13.326;2023-06-10T14:03:25;12.23;;;6.07;;
3267;SDS011;1646;52.450;13.326;2023-06-10T14:08:24;8.60;;;7.30;;
3267;SDS011;1646;52.450;13.326;2023-06-10T14:13:22;9.40;;;6.70;;
3267;SDS011;1646;52.450;13.326;2023-06-10T14:18:22;7.63;;;6.80;;
3267;SDS011;1646;52.450;13.326;2023-06-10T14:23:20;13.23;;;7.00;;
3267;SDS011;1646;52.450;13.326;2023-06-10T14:28:18;10.77;;;5.90;;
3267;SDS011;1646;52.450;13.326;2023-06-10T14:33:17;6.20;;;5.63;;
3267;SDS011;1646;52.450;13.326;2023-06-10T14:38:16;8.00;;;5.93;;
3267;SDS011;1646;52.450;13.326;2023-06-10T14:43:15;11.70;;;6.60;;
3267;SDS011;1646;52.450;13.326;2023-06-10T14:48:13;8.87;;;5.37;;
3267;SDS011;1646;52.450;13.326;2023-06-10T14:53:12;7.87;;;5.67;;
3267;SDS011;1646;52.450;13.326;2023-06-10T14:58:11;6.67;;;6.00;;
3267;SDS011;1646;52.450;13.326;2023-06-10T15:03:10;7.10;;;4.80;;
3267;SDS011;1646;52.450;13.326;2023-06-10T15:08:08;7.73;;;5.80;;
3267;SDS011;1646;52.450;13.326;2023-06-10T15:13:07;11.13;;;5.90;;
3267;SDS011;1646;52.450;13.326;2023-06-10T15:18:07;6.27;;;5.63;;
3267;SDS011;1646;52.450;13.326;2023-06-10T15:23:05;9.67;;;5.20;;
3267;SDS011;1646;52.450;13.326;2023-06-10T15:28:04;10.40;;;6.00;;
3267;SDS011;1646;52.450;13.326;2023-06-10T15:33:02;8.50;;;5.17;;
3267;SDS011;1646;52.450;13.326;2023-06-10T15:38:04;7.47;;;5.33;;
3267;SDS011;1646;52.450;13.326;2023-06-10T15:43:02;12.57;;;6.50;;
3267;SDS011;1646;52.450;13.326;2023-06-10T15:48:01;8.67;;;5.63;;
3267;SDS011;1646;52.450;13.326;2023-06-10T15:52:59;6.20;;;4.73;;
3267;SDS011;1646;52.450;13.326;2023-06-10T15:57:59;6.60;;;5.20;;
3267;SDS011;1646;52.450;13.326;2023-06-10T16:03:00;10.57;;;5.30;;
3267;SDS011;1646;52.450;13.326;2023-06-10T16:07:59;8.27;;;4.83;;
3267;SDS011;1646;52.450;13.326;2023-06-10T16:13:00;4.90;;;4.03;;
3267;SDS011;1646;52.450;13.326;2023-06-10T16:17:59;6.00;;;4.83;;
3267;SDS011;1646;52.450;13.326;2023-06-10T16:22:57;5.43;;;4.00;;
3267;SDS011;1646;52.450;13.326;2023-06-10T16:27:55;6.87;;;5.13;;
3267;SDS011;1646;52.450;13.326;2023-06-10T16:32:55;10.07;;;6.53;;
3267;SDS011;1646;52.450;13.326;2023-06-10T16:37:53;10.10;;;4.53;;
3267;SDS011;1646;52.450;13.326;2023-06-10T16:42:52;7.10;;;4.47;;
3267;SDS011;1646;52.450;13.326;2023-06-10T16:47:50;5.10;;;4.60;;
3267;SDS011;1646;52.450;13.326;2023-06-10T16:52:49;7.87;;;4.90;;
3267;SDS011;1646;52.450;13.326;2023-06-10T16:57:48;5.97;;;4.70;;
3267;SDS011;1646;52.450;13.326;2023-06-10T17:02:46;8.20;;;5.80;;
3267;SDS011;1646;52.450;13.326;2023-06-10T17:07:44;11.20;;;5.00;;
3267;SDS011;1646;52.450;13.326;2023-06-10T17:12:45;16.43;;;6.83;;
3267;SDS011;1646;52.450;13.326;2023-06-10T17:17:43;9.20;;;5.33;;
3267;SDS011;1646;52.450;13.326;2023-06-10T17:22:41;7.07;;;5.57;;
3267;SDS011;1646;52.450;13.326;2023-06-10T17:27:40;8.13;;;5.70;;
3267;SDS011;1646;52.450;13.326;2023-06-10T17:32:40;6.03;;;4.03;;
3267;SDS011;1646;52.450;13.326;2023-06-10T17:37:38;8.97;;;5.10;;
3267;SDS011;1646;52.450;13.326;2023-06-10T17:42:36;7.83;;;5.90;;
3267;SDS011;1646;52.450;13.326;2023-06-10T17:47:34;9.63;;;4.93;;
3267;SDS011;1646;52.450;13.326;2023-06-10T17:52:34;5.93;;;4.93;;
3267;SDS011;1646;52.450;13.326;2023-06-10T17:57:32;7.23;;;4.23;;
3267;SDS011;1646;52.450;13.326;2023-06-10T18:02:31;5.47;;;4.70;;
3267;SDS011;1646;52.450;13.326;2023-06-10T18:07:29;7.60;;;4.73;;
3267;SDS011;1646;52.450;13.326;2023-06-10T18:12:29;7.10;;;4.27;;
3267;SDS011;1646;52.450;13.326;2023-06-10T18:17:27;8.77;;;3.67;;
3267;SDS011;1646;52.450;13.326;2023-06-10T18:22:26;6.80;;;5.27;;
3267;SDS011;1646;52.450;13.326;2023-06-10T18:27:24;7.20;;;4.70;;
3267;SDS011;1646;52.450;13.326;2023-06-10T18:32:24;6.67;;;4.90;;
3267;SDS011;1646;52.450;13.326;2023-06-10T18:37:22;10.27;;;5.07;;
3267;SDS011;1646;52.450;13.326;2023-06-10T18:42:20;10.43;;;5.10;;
3267;SDS011;1646;52.450;13.326;2023-06-10T18:47:19;6.73;;;4.80;;
3267;SDS011;1646;52.450;13.326;2023-06-10T18:52:18;8.73;;;5.07;;
3267;SDS011;1646;52.450;13.326;2023-06-10T18:57:17;8.77;;;5.50;;
3267;SDS011;1646;52.450;13.326;2023-06-10T19:02:15;6.77;;;5.40;;
3267;SDS011;1646;52.450;13.326;2023-06-10T19:07:13;15.43;;;5.33;;
3267;SDS011;1646;52.450;13.326;2023-06-10T19:12:16;9.80;;;5.90;;
3267;SDS011;1646;52.450;13.326;2023-06-10T19:17:15;9.10;;;5.27;;
3267;SDS011;1646;52.450;13.326;2023-06-10T19:22:13;8.27;;;5.73;;
3267;SDS011;1646;52.450;13.326;2023-06-10T19:27:12;14.53;;;6.10;;
3267;SDS011;1646;52.450;13.326;2023-06-10T19:32:11;9.40;;;5.90;;
3267;SDS011;1646;52.450;13.326;2023-06-10T19:37:10;7.57;;;5.17;;
3267;SDS011;1646;52.450;13.326;2023-06-10T19:42:08;9.27;;;5.40;;
3267;SDS011;1646;52.450;13.326;2023-06-10T19:47:12;5.90;;;4.60;;
3267;SDS011;1646;52.450;13.326;2023-06-10T19:52:10;8.77;;;5.03;;
3267;SDS011;1646;52.450;13.326;2023-06-10T19:57:08;8.50;;;4.97;;
3267;SDS011;1646;52.450;13.326;2023-06-10T20:02:06;9.70;;;5.10;;
3267;SDS011;1646;52.450;13.326;2023-06-10T20:07:06;9.50;;;5.03;;
3267;SDS011;1646;52.450;13.326;2023-06-10T20:12:05;11.53;;;4.50;;
3267;SDS011;1646;52.450;13.326;2023-06-10T20:17:04;9.57;;;4.50;;
3267;SDS011;1646;52.450;13.326;2023-06-10T20:22:03;6.73;;;4.40;;
3267;SDS011;1646;52.450;13.326;2023-06-10T20:27:03;8.83;;;4.77;;
3267;SDS011;1646;52.450;13.326;2023-06-10T20:32:02;8.47;;;4.83;;
3267;SDS011;1646;52.450;13.326;2023-06-10T20:37:01;8.73;;;4.33;;
3267;SDS011;1646;52.450;13.326;2023-06-10T20:41:59;6.57;;;5.10;;
3267;SDS011;1646;52.450;13.326;2023-06-10T20:46:59;7.70;;;4.80;;
3267;SDS011;1646;52.450;13.326;2023-06-10T20:51:57;12.33;;;4.97;;
3267;SDS011;1646;52.450;13.326;2023-06-10T20:56:56;8.50;;;5.47;;
3267;SDS011;1646;52.450;13.326;2023-06-10T21:01:54;9.10;;;5.43;;
3267;SDS011;1646;52.450;13.326;2023-06-10T21:06:54;7.80;;;5.17;;
3267;SDS011;1646;52.450;13.326;2023-06-10T21:11:52;6.77;;;4.97;;
3267;SDS011;1646;52.450;13.326;2023-06-10T21:16:50;10.00;;;5.67;;
3267;SDS011;1646;52.450;13.326;2023-06-10T21:21:48;7.40;;;5.30;;
3267;SDS011;1646;52.450;13.326;2023-06-10T21:26:48;9.03;;;5.80;;
3267;SDS011;1646;52.450;13.326;2023-06-10T21:31:47;8.50;;;5.30;;
3267;SDS011;1646;52.450;13.326;2023-06-10T21:36:45;10.73;;;4.83;;
3267;SDS011;1646;52.450;13.326;2023-06-10T21:41:43;8.53;;;5.03;;
3267;SDS011;1646;52.450;13.326;2023-06-10T21:46:43;6.23;;;5.20;;
3267;SDS011;1646;52.450;13.326;2023-06-10T21:51:41;7.60;;;5.50;;
3267;SDS011;1646;52.450;13.326;2023-06-10T21:56:41;10.23;;;4.80;;
3267;SDS011;1646;52.450;13.326;2023-06-10T22:01:44;6.07;;;5.13;;
3267;SDS011;1646;52.450;13.326;2023-06-10T22:06:42;9.07;;;4.90;;
3267;SDS011;1646;52.450;13.326;2023-06-10T22:11:41;7.03;;;4.90;;
3267;SDS011;1646;52.450;13.326;2023-06-10T22:16:40;7.43;;;4.93;;
3267;SDS011;1646;52.450;13.326;2023-06-10T22:21:39;7.53;;;5.03;;
3267;SDS011;1646;52.450;13.326;2023-06-10T22:26:38;7.00;;;5.20;;
3267;SDS011;1646;52.450;13.326;2023-06-10T22:31:49;6.83;;;4.60;;
3267;SDS011;1646;52.450;13.326;2023-06-10T22:36:48;8.67;;;5.10;;
3267;SDS011;1646;52.450;13.326;2023-06-10T22:41:47;7.40;;;4.60;;
3267;SDS011;1646;52.450;13.326;2023-06-10T22:46:45;5.50;;;3.90;;
3267;SDS011;1646;52.450;13.326;2023-06-10T22:51:43;10.60;;;5.30;;
3267;SDS011;1646;52.450;13.326;2023-06-10T22:56:44;10.40;;;4.50;;
3267;SDS011;1646;52.450;13.326;2023-06-10T23:01:42;11.07;;;7.30;;
3267;SDS011;1646;52.450;13.326;2023-06-10T23:06:40;8.30;;;4.30;;
3267;SDS011;1646;52.450;13.326;2023-06-10T23:11:39;6.43;;;4.67;;
3267;SDS011;1646;52.450;13.326;2023-06-10T23:16:39;5.73;;;3.43;;
3267;SDS011;1646;52.450;13.326;2023-06-10T23:21:42;8.47;;;4.17;;
3267;SDS011;1646;52.450;13.326;2023-06-10T23:26:45;9.97;;;3.80;;
3267;SDS011;1646;52.450;13.326;2023-06-10T23:31:45;4.77;;;3.57;;
3267;SDS011;1646;52.450;13.326;2023-06-10T23:36:44;6.53;;;3.37;;
3267;SDS011;1646;52.450;13.326;2023-06-10T23:41:43;4.50;;;3.07;;
3267;SDS011;1646;52.450;13.326;2023-06-10T23:46:42;6.40;;;3.70;;
3267;SDS011;1646;52.450;13.326;2023-06-10T23:51:42;5.93;;;3.80;;
3267;SDS011;1646;52.450;13.326;2023-06-10T23:56:40;6.53;;;3.47;;
